sensor_id;sensor_type;location;lat;lon;timestamp;P1;durP1;ratioP1;P2;durP2;ratioP2
76795;SDS011;65745;50.278;18.192;2023-03-23T00:01:34;18.10;;;11.60;;
76795;SDS011;65745;50.278;18.192;2023-03-23T00:04:05;13.00;;;11.00;;
76795;SDS011;65745;50.278;18.192;2023-03-23T00:06:36;12.90;;;10.70;;
76795;SDS011;65745;50.278;18.192;2023-03-23T00:09:07;16.00;;;13.60;;
76795;SDS011;65745;50.278;18.192;2023-03-23T00:11:39;15.80;;;14.10;;
76795;SDS011;65745;50.278;18.192;2023-03-23T00:14:10;27.00;;;20.60;;
76795;SDS011;65745;50.278;18.192;2023-03-23T00:16:41;23.90;;;19.60;;
76795;SDS011;65745;50.278;18.192;2023-03-23T00:19:13;24.20;;;19.10;;
76795;SDS011;65745;50.278;18.192;2023-03-23T00:21:44;24.10;;;19.40;;
76795;SDS011;65745;50.278;18.192;2023-03-23T00:24:16;30.00;;;22.30;;
76795;SDS011;65745;50.278;18.192;2023-03-23T00:26:48;21.50;;;18.50;;
76795;SDS011;65745;50.278;18.192;2023-03-23T00:29:22;29.20;;;22.20;;
76795;SDS011;65745;50.278;18.192;2023-03-23T00:31:54;18.70;;;16.70;;
76795;SDS011;65745;50.278;18.192;2023-03-23T00:34:25;25.00;;;19.80;;
76795;SDS011;65745;50.278;18.192;2023-03-23T00:37:01;23.60;;;18.90;;
76795;SDS011;65745;50.278;18.192;2023-03-23T00:39:32;23.40;;;18.60;;
76795;SDS011;65745;50.278;18.192;2023-03-23T00:42:04;22.80;;;19.60;;
76795;SDS011;65745;50.278;18.192;2023-03-23T00:44:36;18.50;;;16.50;;
76795;SDS011;65745;50.278;18.192;2023-03-23T00:47:07;16.20;;;14.40;;
76795;SDS011;65745;50.278;18.192;2023-03-23T00:49:39;18.20;;;15.20;;
76795;SDS011;65745;50.278;18.192;2023-03-23T00:52:10;14.80;;;11.20;;
76795;SDS011;65745;50.278;18.192;2023-03-23T00:54:41;10.60;;;9.20;;
76795;SDS011;65745;50.278;18.192;2023-03-23T00:57:12;11.10;;;8.20;;
76795;SDS011;65745;50.278;18.192;2023-03-23T00:59:44;12.70;;;9.40;;
76795;SDS011;65745;50.278;18.192;2023-03-23T01:02:16;9.60;;;8.50;;
76795;SDS011;65745;50.278;18.192;2023-03-23T01:04:47;11.00;;;9.20;;
76795;SDS011;65745;50.278;18.192;2023-03-23T01:07:20;8.50;;;7.60;;
76795;SDS011;65745;50.278;18.192;2023-03-23T01:09:52;12.20;;;10.20;;
76795;SDS011;65745;50.278;18.192;2023-03-23T01:12:25;11.70;;;9.40;;
76795;SDS011;65745;50.278;18.192;2023-03-23T01:14:57;11.20;;;10.00;;
76795;SDS011;65745;50.278;18.192;2023-03-23T01:17:28;10.90;;;9.60;;
76795;SDS011;65745;50.278;18.192;2023-03-23T01:19:59;12.50;;;10.10;;
76795;SDS011;65745;50.278;18.192;2023-03-23T01:22:33;11.00;;;9.90;;
76795;SDS011;65745;50.278;18.192;2023-03-23T01:25:05;10.70;;;8.80;;
76795;SDS011;65745;50.278;18.192;2023-03-23T01:27:38;10.90;;;9.70;;
76795;SDS011;65745;50.278;18.192;2023-03-23T01:30:11;9.50;;;8.30;;
76795;SDS011;65745;50.278;18.192;2023-03-23T01:32:43;9.70;;;8.70;;
76795;SDS011;65745;50.278;18.192;2023-03-23T01:35:14;9.60;;;8.60;;
76795;SDS011;65745;50.278;18.192;2023-03-23T01:37:46;11.90;;;9.00;;
76795;SDS011;65745;50.278;18.192;2023-03-23T01:40:17;10.00;;;8.50;;
76795;SDS011;65745;50.278;18.192;2023-03-23T01:42:48;9.90;;;8.30;;
76795;SDS011;65745;50.278;18.192;2023-03-23T01:45:22;10.20;;;7.80;;
76795;SDS011;65745;50.278;18.192;2023-03-23T01:48:01;10.80;;;9.10;;
76795;SDS011;65745;50.278;18.192;2023-03-23T01:53:12;7.90;;;7.10;;
76795;SDS011;65745;50.278;18.192;2023-03-23T01:55:44;9.40;;;8.20;;
76795;SDS011;65745;50.278;18.192;2023-03-23T01:58:18;9.70;;;8.40;;
76795;SDS011;65745;50.278;18.192;2023-03-23T02:00:56;10.30;;;8.00;;
76795;SDS011;65745;50.278;18.192;2023-03-23T02:03:31;8.20;;;7.30;;
76795;SDS011;65745;50.278;18.192;2023-03-23T02:06:04;8.20;;;7.10;;
76795;SDS011;65745;50.278;18.192;2023-03-23T02:08:43;7.90;;;7.00;;
76795;SDS011;65745;50.278;18.192;2023-03-23T02:11:18;9.00;;;8.10;;
76795;SDS011;65745;50.278;18.192;2023-03-23T02:13:50;9.10;;;8.10;;
76795;SDS011;65745;50.278;18.192;2023-03-23T02:16:24;9.10;;;7.60;;
76795;SDS011;65745;50.278;18.192;2023-03-23T02:19:07;11.60;;;8.30;;
76795;SDS011;65745;50.278;18.192;2023-03-23T02:22:09;9.80;;;7.40;;
76795;SDS011;65745;50.278;18.192;2023-03-23T02:25:02;11.30;;;9.00;;
76795;SDS011;65745;50.278;18.192;2023-03-23T02:31:03;10.90;;;8.90;;
76795;SDS011;65745;50.278;18.192;2023-03-23T02:33:48;11.40;;;9.40;;
76795;SDS011;65745;50.278;18.192;2023-03-23T02:36:25;11.20;;;8.70;;
76795;SDS011;65745;50.278;18.192;2023-03-23T02:39:03;11.60;;;10.20;;
76795;SDS011;65745;50.278;18.192;2023-03-23T02:44:30;10.50;;;8.30;;
76795;SDS011;65745;50.278;18.192;2023-03-23T02:47:04;10.60;;;8.90;;
76795;SDS011;65745;50.278;18.192;2023-03-23T02:49:37;10.40;;;9.20;;
76795;SDS011;65745;50.278;18.192;2023-03-23T02:52:14;7.60;;;6.90;;
76795;SDS011;65745;50.278;18.192;2023-03-23T02:54:50;9.50;;;8.40;;
76795;SDS011;65745;50.278;18.192;2023-03-23T02:57:23;7.40;;;6.70;;
76795;SDS011;65745;50.278;18.192;2023-03-23T02:59:57;8.50;;;7.30;;
76795;SDS011;65745;50.278;18.192;2023-03-23T03:02:28;8.10;;;6.70;;
76795;SDS011;65745;50.278;18.192;2023-03-23T03:05:06;11.20;;;8.20;;
76795;SDS011;65745;50.278;18.192;2023-03-23T03:07:48;9.10;;;8.20;;
76795;SDS011;65745;50.278;18.192;2023-03-23T03:10:32;11.60;;;9.20;;
76795;SDS011;65745;50.278;18.192;2023-03-23T03:13:13;9.80;;;8.80;;
76795;SDS011;65745;50.278;18.192;2023-03-23T03:15:50;9.60;;;8.60;;
76795;SDS011;65745;50.278;18.192;2023-03-23T03:18:29;10.50;;;7.90;;
76795;SDS011;65745;50.278;18.192;2023-03-23T03:21:04;11.10;;;8.40;;
76795;SDS011;65745;50.278;18.192;2023-03-23T03:23:41;11.90;;;10.10;;
76795;SDS011;65745;50.278;18.192;2023-03-23T03:26:14;15.10;;;12.40;;
76795;SDS011;65745;50.278;18.192;2023-03-23T03:28:54;17.30;;;13.80;;
76795;SDS011;65745;50.278;18.192;2023-03-23T03:31:26;15.30;;;12.90;;
76795;SDS011;65745;50.278;18.192;2023-03-23T03:34:01;15.40;;;11.50;;
76795;SDS011;65745;50.278;18.192;2023-03-23T03:36:33;17.70;;;13.60;;
76795;SDS011;65745;50.278;18.192;2023-03-23T03:39:08;15.40;;;12.00;;
76795;SDS011;65745;50.278;18.192;2023-03-23T03:41:44;16.70;;;13.30;;
76795;SDS011;65745;50.278;18.192;2023-03-23T03:44:15;13.70;;;10.00;;
76795;SDS011;65745;50.278;18.192;2023-03-23T03:46:46;14.10;;;11.00;;
76795;SDS011;65745;50.278;18.192;2023-03-23T03:49:18;12.90;;;11.20;;
76795;SDS011;65745;50.278;18.192;2023-03-23T03:51:50;11.10;;;9.90;;
76795;SDS011;65745;50.278;18.192;2023-03-23T03:54:25;12.30;;;9.80;;
76795;SDS011;65745;50.278;18.192;2023-03-23T03:56:56;12.50;;;10.00;;
76795;SDS011;65745;50.278;18.192;2023-03-23T03:59:46;12.30;;;8.70;;
76795;SDS011;65745;50.278;18.192;2023-03-23T04:02:36;12.10;;;9.30;;
76795;SDS011;65745;50.278;18.192;2023-03-23T04:05:09;11.90;;;9.90;;
76795;SDS011;65745;50.278;18.192;2023-03-23T04:07:40;13.20;;;10.80;;
76795;SDS011;65745;50.278;18.192;2023-03-23T04:10:11;15.80;;;13.00;;
76795;SDS011;65745;50.278;18.192;2023-03-23T04:12:43;19.20;;;15.10;;
76795;SDS011;65745;50.278;18.192;2023-03-23T04:15:33;23.90;;;18.70;;
76795;SDS011;65745;50.278;18.192;2023-03-23T04:18:04;23.70;;;19.50;;
76795;SDS011;65745;50.278;18.192;2023-03-23T04:20:37;17.30;;;13.70;;
76795;SDS011;65745;50.278;18.192;2023-03-23T04:23:08;12.50;;;10.60;;
76795;SDS011;65745;50.278;18.192;2023-03-23T04:25:39;10.30;;;9.10;;
76795;SDS011;65745;50.278;18.192;2023-03-23T04:28:11;9.60;;;8.60;;
76795;SDS011;65745;50.278;18.192;2023-03-23T04:30:52;10.90;;;8.50;;
76795;SDS011;65745;50.278;18.192;2023-03-23T04:33:26;10.10;;;7.50;;
76795;SDS011;65745;50.278;18.192;2023-03-23T04:36:00;10.70;;;9.70;;
76795;SDS011;65745;50.278;18.192;2023-03-23T04:38:54;22.30;;;17.10;;
76795;SDS011;65745;50.278;18.192;2023-03-23T04:41:26;32.30;;;25.10;;
76795;SDS011;65745;50.278;18.192;2023-03-23T04:44:20;23.70;;;18.00;;
76795;SDS011;65745;50.278;18.192;2023-03-23T04:47:01;26.70;;;20.40;;
76795;SDS011;65745;50.278;18.192;2023-03-23T04:49:35;32.30;;;21.40;;
76795;SDS011;65745;50.278;18.192;2023-03-23T04:52:21;26.70;;;20.20;;
76795;SDS011;65745;50.278;18.192;2023-03-23T04:54:57;30.20;;;20.30;;
76795;SDS011;65745;50.278;18.192;2023-03-23T04:57:28;24.70;;;19.70;;
76795;SDS011;65745;50.278;18.192;2023-03-23T05:00:19;33.30;;;23.80;;
76795;SDS011;65745;50.278;18.192;2023-03-23T05:05:26;19.70;;;13.80;;
76795;SDS011;65745;50.278;18.192;2023-03-23T05:07:59;16.70;;;12.20;;
76795;SDS011;65745;50.278;18.192;2023-03-23T05:10:32;14.60;;;12.10;;
76795;SDS011;65745;50.278;18.192;2023-03-23T05:13:07;16.90;;;12.40;;
76795;SDS011;65745;50.278;18.192;2023-03-23T05:15:39;10.20;;;8.20;;
76795;SDS011;65745;50.278;18.192;2023-03-23T05:18:09;10.30;;;8.90;;
76795;SDS011;65745;50.278;18.192;2023-03-23T05:20:40;9.10;;;8.10;;
76795;SDS011;65745;50.278;18.192;2023-03-23T05:23:18;11.50;;;8.70;;
76795;SDS011;65745;50.278;18.192;2023-03-23T05:28:25;12.30;;;10.40;;
76795;SDS011;65745;50.278;18.192;2023-03-23T05:31:14;18.10;;;13.50;;
76795;SDS011;65745;50.278;18.192;2023-03-23T05:33:46;19.80;;;16.10;;
76795;SDS011;65745;50.278;18.192;2023-03-23T05:36:23;14.90;;;13.10;;
76795;SDS011;65745;50.278;18.192;2023-03-23T05:39:10;17.20;;;13.00;;
76795;SDS011;65745;50.278;18.192;2023-03-23T05:41:59;14.80;;;10.40;;
76795;SDS011;65745;50.278;18.192;2023-03-23T05:44:40;14.30;;;10.40;;
76795;SDS011;65745;50.278;18.192;2023-03-23T05:47:13;15.70;;;12.40;;
76795;SDS011;65745;50.278;18.192;2023-03-23T05:49:49;17.00;;;13.70;;
76795;SDS011;65745;50.278;18.192;2023-03-23T05:52:21;25.90;;;20.10;;
76795;SDS011;65745;50.278;18.192;2023-03-23T05:54:53;25.70;;;18.90;;
76795;SDS011;65745;50.278;18.192;2023-03-23T05:57:24;16.40;;;12.60;;
76795;SDS011;65745;50.278;18.192;2023-03-23T06:00:05;10.50;;;8.60;;
76795;SDS011;65745;50.278;18.192;2023-03-23T06:02:48;10.30;;;7.50;;
76795;SDS011;65745;50.278;18.192;2023-03-23T06:05:30;8.40;;;6.70;;
76795;SDS011;65745;50.278;18.192;2023-03-23T06:08:01;10.20;;;8.30;;
76795;SDS011;65745;50.278;18.192;2023-03-23T06:10:32;9.90;;;8.70;;
76795;SDS011;65745;50.278;18.192;2023-03-23T06:13:05;10.80;;;8.60;;
76795;SDS011;65745;50.278;18.192;2023-03-23T06:15:45;9.40;;;8.00;;
76795;SDS011;65745;50.278;18.192;2023-03-23T06:18:42;10.60;;;7.60;;
76795;SDS011;65745;50.278;18.192;2023-03-23T06:21:21;12.60;;;9.70;;
76795;SDS011;65745;50.278;18.192;2023-03-23T06:24:01;12.30;;;9.50;;
76795;SDS011;65745;50.278;18.192;2023-03-23T06:26:33;10.90;;;8.70;;
76795;SDS011;65745;50.278;18.192;2023-03-23T06:29:08;11.40;;;8.80;;
76795;SDS011;65745;50.278;18.192;2023-03-23T06:31:44;11.60;;;9.60;;
76795;SDS011;65745;50.278;18.192;2023-03-23T06:34:17;11.00;;;9.80;;
76795;SDS011;65745;50.278;18.192;2023-03-23T06:37:09;11.10;;;9.80;;
76795;SDS011;65745;50.278;18.192;2023-03-23T06:39:59;11.90;;;9.80;;
76795;SDS011;65745;50.278;18.192;2023-03-23T06:42:43;11.60;;;9.80;;
76795;SDS011;65745;50.278;18.192;2023-03-23T06:45:35;8.40;;;6.90;;
76795;SDS011;65745;50.278;18.192;2023-03-23T06:48:29;9.80;;;7.50;;
76795;SDS011;65745;50.278;18.192;2023-03-23T06:51:01;10.30;;;9.20;;
76795;SDS011;65745;50.278;18.192;2023-03-23T06:53:32;12.50;;;8.10;;
76795;SDS011;65745;50.278;18.192;2023-03-23T06:56:05;10.90;;;9.40;;
76795;SDS011;65745;50.278;18.192;2023-03-23T06:58:37;13.60;;;9.60;;
76795;SDS011;65745;50.278;18.192;2023-03-23T07:01:09;12.00;;;10.50;;
76795;SDS011;65745;50.278;18.192;2023-03-23T07:03:43;10.80;;;8.80;;
76795;SDS011;65745;50.278;18.192;2023-03-23T07:06:15;14.70;;;10.40;;
76795;SDS011;65745;50.278;18.192;2023-03-23T07:08:51;14.10;;;10.60;;
76795;SDS011;65745;50.278;18.192;2023-03-23T07:11:24;11.90;;;9.20;;
76795;SDS011;65745;50.278;18.192;2023-03-23T07:13:56;10.30;;;9.00;;
76795;SDS011;65745;50.278;18.192;2023-03-23T07:16:27;11.20;;;9.30;;
76795;SDS011;65745;50.278;18.192;2023-03-23T07:18:59;13.10;;;10.20;;
76795;SDS011;65745;50.278;18.192;2023-03-23T07:21:30;12.70;;;11.40;;
76795;SDS011;65745;50.278;18.192;2023-03-23T07:24:02;12.40;;;10.00;;
76795;SDS011;65745;50.278;18.192;2023-03-23T07:26:44;10.30;;;8.90;;
76795;SDS011;65745;50.278;18.192;2023-03-23T07:29:15;9.90;;;8.80;;
76795;SDS011;65745;50.278;18.192;2023-03-23T07:31:50;8.70;;;7.80;;
76795;SDS011;65745;50.278;18.192;2023-03-23T07:34:21;9.40;;;8.40;;
76795;SDS011;65745;50.278;18.192;2023-03-23T07:37:12;9.40;;;7.40;;
76795;SDS011;65745;50.278;18.192;2023-03-23T07:39:47;9.40;;;7.10;;
76795;SDS011;65745;50.278;18.192;2023-03-23T07:42:19;10.40;;;7.00;;
76795;SDS011;65745;50.278;18.192;2023-03-23T07:44:57;12.40;;;9.70;;
76795;SDS011;65745;50.278;18.192;2023-03-23T07:47:28;11.30;;;9.30;;
76795;SDS011;65745;50.278;18.192;2023-03-23T07:49:59;10.10;;;8.90;;
76795;SDS011;65745;50.278;18.192;2023-03-23T07:52:36;9.60;;;8.60;;
76795;SDS011;65745;50.278;18.192;2023-03-23T07:55:08;10.10;;;8.80;;
76795;SDS011;65745;50.278;18.192;2023-03-23T07:58:08;8.80;;;7.90;;
76795;SDS011;65745;50.278;18.192;2023-03-23T08:00:39;9.40;;;8.40;;
76795;SDS011;65745;50.278;18.192;2023-03-23T08:03:12;10.50;;;8.10;;
76795;SDS011;65745;50.278;18.192;2023-03-23T08:05:58;9.20;;;8.20;;
76795;SDS011;65745;50.278;18.192;2023-03-23T08:08:48;10.50;;;8.20;;
76795;SDS011;65745;50.278;18.192;2023-03-23T08:11:42;12.30;;;9.10;;
76795;SDS011;65745;50.278;18.192;2023-03-23T08:14:51;9.70;;;8.00;;
76795;SDS011;65745;50.278;18.192;2023-03-23T08:17:51;10.20;;;8.50;;
76795;SDS011;65745;50.278;18.192;2023-03-23T08:20:45;11.80;;;8.40;;
76795;SDS011;65745;50.278;18.192;2023-03-23T08:23:19;10.80;;;9.40;;
76795;SDS011;65745;50.278;18.192;2023-03-23T08:26:07;10.80;;;9.70;;
76795;SDS011;65745;50.278;18.192;2023-03-23T08:29:04;12.60;;;9.70;;
76795;SDS011;65745;50.278;18.192;2023-03-23T08:31:50;10.80;;;8.70;;
76795;SDS011;65745;50.278;18.192;2023-03-23T08:34:48;8.40;;;7.00;;
76795;SDS011;65745;50.278;18.192;2023-03-23T08:37:35;9.70;;;8.70;;
76795;SDS011;65745;50.278;18.192;2023-03-23T08:40:20;8.20;;;7.30;;
76795;SDS011;65745;50.278;18.192;2023-03-23T08:43:20;9.20;;;7.20;;
76795;SDS011;65745;50.278;18.192;2023-03-23T08:46:10;10.60;;;8.30;;
76795;SDS011;65745;50.278;18.192;2023-03-23T08:49:02;9.70;;;7.40;;
76795;SDS011;65745;50.278;18.192;2023-03-23T08:52:01;7.50;;;6.50;;
76795;SDS011;65745;50.278;18.192;2023-03-23T08:54:52;7.20;;;5.90;;
76795;SDS011;65745;50.278;18.192;2023-03-23T08:57:48;10.00;;;7.50;;
76795;SDS011;65745;50.278;18.192;2023-03-23T09:00:30;7.70;;;6.90;;
76795;SDS011;65745;50.278;18.192;2023-03-23T09:03:25;8.70;;;7.20;;
76795;SDS011;65745;50.278;18.192;2023-03-23T09:06:16;7.40;;;5.80;;
76795;SDS011;65745;50.278;18.192;2023-03-23T09:08:47;8.40;;;7.50;;
76795;SDS011;65745;50.278;18.192;2023-03-23T09:11:18;10.00;;;7.60;;
76795;SDS011;65745;50.278;18.192;2023-03-23T09:13:49;7.80;;;6.10;;
76795;SDS011;65745;50.278;18.192;2023-03-23T09:16:20;7.30;;;6.30;;
76795;SDS011;65745;50.278;18.192;2023-03-23T09:18:51;9.10;;;7.10;;
76795;SDS011;65745;50.278;18.192;2023-03-23T09:21:23;7.70;;;6.20;;
76795;SDS011;65745;50.278;18.192;2023-03-23T09:23:54;7.30;;;6.30;;
76795;SDS011;65745;50.278;18.192;2023-03-23T09:26:26;8.00;;;6.70;;
76795;SDS011;65745;50.278;18.192;2023-03-23T09:28:57;7.80;;;6.50;;
76795;SDS011;65745;50.278;18.192;2023-03-23T09:31:29;8.60;;;7.50;;
76795;SDS011;65745;50.278;18.192;2023-03-23T09:34:00;8.40;;;7.10;;
76795;SDS011;65745;50.278;18.192;2023-03-23T09:36:32;9.70;;;7.20;;
76795;SDS011;65745;50.278;18.192;2023-03-23T09:39:04;8.00;;;7.20;;
76795;SDS011;65745;50.278;18.192;2023-03-23T09:41:47;9.50;;;8.20;;
76795;SDS011;65745;50.278;18.192;2023-03-23T09:44:30;8.00;;;7.00;;
76795;SDS011;65745;50.278;18.192;2023-03-23T09:47:13;8.00;;;7.10;;
76795;SDS011;65745;50.278;18.192;2023-03-23T09:49:50;8.40;;;6.90;;
76795;SDS011;65745;50.278;18.192;2023-03-23T09:52:27;9.00;;;7.00;;
76795;SDS011;65745;50.278;18.192;2023-03-23T09:55:08;11.20;;;8.50;;
76795;SDS011;65745;50.278;18.192;2023-03-23T09:57:45;10.30;;;8.40;;
76795;SDS011;65745;50.278;18.192;2023-03-23T10:00:22;10.90;;;8.80;;
76795;SDS011;65745;50.278;18.192;2023-03-23T10:02:59;7.30;;;6.60;;
76795;SDS011;65745;50.278;18.192;2023-03-23T10:05:36;9.30;;;7.80;;
76795;SDS011;65745;50.278;18.192;2023-03-23T10:08:10;7.70;;;6.80;;
76795;SDS011;65745;50.278;18.192;2023-03-23T10:10:55;11.00;;;7.20;;
76795;SDS011;65745;50.278;18.192;2023-03-23T10:13:40;10.20;;;7.40;;
76795;SDS011;65745;50.278;18.192;2023-03-23T10:16:21;9.70;;;7.50;;
76795;SDS011;65745;50.278;18.192;2023-03-23T10:18:56;8.80;;;7.70;;
76795;SDS011;65745;50.278;18.192;2023-03-23T10:21:35;8.20;;;7.20;;
76795;SDS011;65745;50.278;18.192;2023-03-23T10:24:10;8.80;;;7.70;;
76795;SDS011;65745;50.278;18.192;2023-03-23T10:26:47;7.80;;;7.00;;
76795;SDS011;65745;50.278;18.192;2023-03-23T10:29:26;8.80;;;7.10;;
76795;SDS011;65745;50.278;18.192;2023-03-23T10:32:08;9.70;;;7.80;;
76795;SDS011;65745;50.278;18.192;2023-03-23T10:34:44;9.60;;;7.80;;
76795;SDS011;65745;50.278;18.192;2023-03-23T10:37:23;9.10;;;5.90;;
76795;SDS011;65745;50.278;18.192;2023-03-23T10:39:58;8.10;;;6.90;;
76795;SDS011;65745;50.278;18.192;2023-03-23T10:42:32;7.50;;;6.50;;
76795;SDS011;65745;50.278;18.192;2023-03-23T10:45:11;8.60;;;6.70;;
76795;SDS011;65745;50.278;18.192;2023-03-23T10:47:47;8.00;;;5.70;;
76795;SDS011;65745;50.278;18.192;2023-03-23T10:50:24;7.60;;;6.30;;
76795;SDS011;65745;50.278;18.192;2023-03-23T10:52:59;7.70;;;6.00;;
76795;SDS011;65745;50.278;18.192;2023-03-23T10:55:41;10.60;;;6.80;;
76795;SDS011;65745;50.278;18.192;2023-03-23T10:58:22;7.90;;;6.90;;
76795;SDS011;65745;50.278;18.192;2023-03-23T11:00:57;7.50;;;6.20;;
76795;SDS011;65745;50.278;18.192;2023-03-23T11:03:33;10.00;;;7.40;;
76795;SDS011;65745;50.278;18.192;2023-03-23T11:06:10;7.90;;;6.20;;
76795;SDS011;65745;50.278;18.192;2023-03-23T11:08:57;10.10;;;8.00;;
76795;SDS011;65745;50.278;18.192;2023-03-23T11:11:32;10.10;;;6.70;;
76795;SDS011;65745;50.278;18.192;2023-03-23T11:14:15;8.50;;;6.10;;
76795;SDS011;65745;50.278;18.192;2023-03-23T11:16:49;7.20;;;5.80;;
76795;SDS011;65745;50.278;18.192;2023-03-23T11:22:05;8.00;;;5.80;;
76795;SDS011;65745;50.278;18.192;2023-03-23T11:24:41;8.40;;;7.40;;
76795;SDS011;65745;50.278;18.192;2023-03-23T11:27:15;7.00;;;5.60;;
76795;SDS011;65745;50.278;18.192;2023-03-23T11:29:49;6.50;;;5.30;;
76795;SDS011;65745;50.278;18.192;2023-03-23T11:32:24;9.50;;;6.00;;
76795;SDS011;65745;50.278;18.192;2023-03-23T11:34:58;7.50;;;5.10;;
76795;SDS011;65745;50.278;18.192;2023-03-23T11:40:14;6.40;;;4.50;;
76795;SDS011;65745;50.278;18.192;2023-03-23T11:42:48;6.70;;;5.40;;
76795;SDS011;65745;50.278;18.192;2023-03-23T11:45:30;7.20;;;4.40;;
76795;SDS011;65745;50.278;18.192;2023-03-23T11:50:57;6.90;;;4.40;;
76795;SDS011;65745;50.278;18.192;2023-03-23T11:53:34;6.30;;;4.90;;
76795;SDS011;65745;50.278;18.192;2023-03-23T11:56:17;7.50;;;5.10;;
76795;SDS011;65745;50.278;18.192;2023-03-23T11:58:54;8.20;;;4.60;;
76795;SDS011;65745;50.278;18.192;2023-03-23T12:01:31;5.10;;;4.70;;
76795;SDS011;65745;50.278;18.192;2023-03-23T12:07:11;6.40;;;4.80;;
76795;SDS011;65745;50.278;18.192;2023-03-23T12:10:06;5.20;;;4.70;;
76795;SDS011;65745;50.278;18.192;2023-03-23T12:12:51;6.40;;;5.00;;
76795;SDS011;65745;50.278;18.192;2023-03-23T12:15:37;5.70;;;5.10;;
76795;SDS011;65745;50.278;18.192;2023-03-23T12:18:15;6.00;;;4.70;;
76795;SDS011;65745;50.278;18.192;2023-03-23T12:20:57;5.30;;;4.20;;
76795;SDS011;65745;50.278;18.192;2023-03-23T12:23:36;5.00;;;4.40;;
76795;SDS011;65745;50.278;18.192;2023-03-23T12:26:21;5.80;;;4.80;;
76795;SDS011;65745;50.278;18.192;2023-03-23T12:29:08;6.10;;;5.10;;
76795;SDS011;65745;50.278;18.192;2023-03-23T12:32:04;8.20;;;5.50;;
76795;SDS011;65745;50.278;18.192;2023-03-23T12:34:58;7.20;;;6.10;;
76795;SDS011;65745;50.278;18.192;2023-03-23T12:37:46;7.00;;;4.80;;
76795;SDS011;65745;50.278;18.192;2023-03-23T12:40:32;5.10;;;4.30;;
76795;SDS011;65745;50.278;18.192;2023-03-23T12:43:13;3.80;;;3.00;;
76795;SDS011;65745;50.278;18.192;2023-03-23T12:48:51;4.30;;;3.20;;
76795;SDS011;65745;50.278;18.192;2023-03-23T12:51:26;3.80;;;2.90;;
76795;SDS011;65745;50.278;18.192;2023-03-23T12:54:03;4.70;;;3.90;;
76795;SDS011;65745;50.278;18.192;2023-03-23T12:56:42;6.80;;;5.30;;
76795;SDS011;65745;50.278;18.192;2023-03-23T12:59:22;9.40;;;5.30;;
76795;SDS011;65745;50.278;18.192;2023-03-23T13:01:57;8.30;;;5.20;;
76795;SDS011;65745;50.278;18.192;2023-03-23T13:04:35;7.30;;;5.20;;
76795;SDS011;65745;50.278;18.192;2023-03-23T13:07:09;10.80;;;7.00;;
76795;SDS011;65745;50.278;18.192;2023-03-23T13:12:17;9.70;;;5.90;;
76795;SDS011;65745;50.278;18.192;2023-03-23T13:14:53;5.60;;;4.40;;
76795;SDS011;65745;50.278;18.192;2023-03-23T13:17:34;5.20;;;4.50;;
76795;SDS011;65745;50.278;18.192;2023-03-23T13:20:19;7.20;;;4.70;;
76795;SDS011;65745;50.278;18.192;2023-03-23T13:23:02;6.80;;;5.00;;
76795;SDS011;65745;50.278;18.192;2023-03-23T13:25:42;7.60;;;6.60;;
76795;SDS011;65745;50.278;18.192;2023-03-23T13:28:19;10.40;;;7.70;;
76795;SDS011;65745;50.278;18.192;2023-03-23T13:31:00;7.60;;;6.50;;
76795;SDS011;65745;50.278;18.192;2023-03-23T13:33:34;6.70;;;5.30;;
76795;SDS011;65745;50.278;18.192;2023-03-23T13:36:07;6.40;;;5.50;;
76795;SDS011;65745;50.278;18.192;2023-03-23T13:38:44;7.70;;;5.50;;
76795;SDS011;65745;50.278;18.192;2023-03-23T13:41:19;6.30;;;4.70;;
76795;SDS011;65745;50.278;18.192;2023-03-23T13:43:50;7.30;;;6.40;;
76795;SDS011;65745;50.278;18.192;2023-03-23T13:46:26;10.50;;;6.40;;
76795;SDS011;65745;50.278;18.192;2023-03-23T13:49:15;7.00;;;6.00;;
76795;SDS011;65745;50.278;18.192;2023-03-23T13:51:56;6.20;;;5.10;;
76795;SDS011;65745;50.278;18.192;2023-03-23T13:57:33;6.80;;;5.10;;
76795;SDS011;65745;50.278;18.192;2023-03-23T14:00:11;6.90;;;5.10;;
76795;SDS011;65745;50.278;18.192;2023-03-23T14:03:05;7.10;;;5.00;;
76795;SDS011;65745;50.278;18.192;2023-03-23T14:05:43;6.20;;;5.10;;
76795;SDS011;65745;50.278;18.192;2023-03-23T14:08:22;6.80;;;5.20;;
76795;SDS011;65745;50.278;18.192;2023-03-23T14:11:13;6.90;;;5.60;;
76795;SDS011;65745;50.278;18.192;2023-03-23T14:13:49;8.50;;;6.20;;
76795;SDS011;65745;50.278;18.192;2023-03-23T14:16:31;8.00;;;5.60;;
76795;SDS011;65745;50.278;18.192;2023-03-23T14:19:16;9.50;;;6.20;;
76795;SDS011;65745;50.278;18.192;2023-03-23T14:21:51;9.30;;;5.80;;
76795;SDS011;65745;50.278;18.192;2023-03-23T14:24:25;8.70;;;6.70;;
76795;SDS011;65745;50.278;18.192;2023-03-23T14:27:03;8.30;;;6.40;;
76795;SDS011;65745;50.278;18.192;2023-03-23T14:29:41;8.10;;;5.40;;
76795;SDS011;65745;50.278;18.192;2023-03-23T14:32:14;8.80;;;4.60;;
76795;SDS011;65745;50.278;18.192;2023-03-23T14:34:47;8.00;;;4.70;;
76795;SDS011;65745;50.278;18.192;2023-03-23T14:37:19;7.90;;;5.10;;
76795;SDS011;65745;50.278;18.192;2023-03-23T14:39:52;5.40;;;4.10;;
76795;SDS011;65745;50.278;18.192;2023-03-23T14:42:26;9.10;;;4.60;;
76795;SDS011;65745;50.278;18.192;2023-03-23T14:44:59;7.40;;;4.90;;
76795;SDS011;65745;50.278;18.192;2023-03-23T14:47:33;6.10;;;4.50;;
76795;SDS011;65745;50.278;18.192;2023-03-23T14:50:18;6.80;;;4.60;;
76795;SDS011;65745;50.278;18.192;2023-03-23T14:52:55;5.20;;;3.90;;
76795;SDS011;65745;50.278;18.192;2023-03-23T14:55:30;4.70;;;3.40;;
76795;SDS011;65745;50.278;18.192;2023-03-23T14:58:08;4.70;;;3.50;;
76795;SDS011;65745;50.278;18.192;2023-03-23T15:00:45;5.60;;;4.00;;
76795;SDS011;65745;50.278;18.192;2023-03-23T15:03:22;5.30;;;4.30;;
76795;SDS011;65745;50.278;18.192;2023-03-23T15:05:55;5.40;;;4.20;;
76795;SDS011;65745;50.278;18.192;2023-03-23T15:08:31;5.40;;;3.40;;
76795;SDS011;65745;50.278;18.192;2023-03-23T15:11:05;5.50;;;3.60;;
76795;SDS011;65745;50.278;18.192;2023-03-23T15:13:43;5.80;;;3.10;;
76795;SDS011;65745;50.278;18.192;2023-03-23T15:16:18;5.00;;;3.70;;
76795;SDS011;65745;50.278;18.192;2023-03-23T15:18:53;5.90;;;3.20;;
76795;SDS011;65745;50.278;18.192;2023-03-23T15:21:28;4.50;;;3.20;;
76795;SDS011;65745;50.278;18.192;2023-03-23T15:24:02;4.20;;;3.10;;
76795;SDS011;65745;50.278;18.192;2023-03-23T15:26:48;5.30;;;3.70;;
76795;SDS011;65745;50.278;18.192;2023-03-23T15:29:19;5.90;;;3.80;;
76795;SDS011;65745;50.278;18.192;2023-03-23T15:31:53;6.40;;;4.00;;
76795;SDS011;65745;50.278;18.192;2023-03-23T15:34:30;4.40;;;4.00;;
76795;SDS011;65745;50.278;18.192;2023-03-23T15:37:16;4.80;;;3.30;;
76795;SDS011;65745;50.278;18.192;2023-03-23T15:39:49;5.70;;;4.00;;
76795;SDS011;65745;50.278;18.192;2023-03-23T15:42:23;4.70;;;3.80;;
76795;SDS011;65745;50.278;18.192;2023-03-23T15:44:57;6.10;;;2.90;;
76795;SDS011;65745;50.278;18.192;2023-03-23T15:47:37;5.90;;;3.20;;
76795;SDS011;65745;50.278;18.192;2023-03-23T15:50:14;5.00;;;3.40;;
76795;SDS011;65745;50.278;18.192;2023-03-23T15:52:47;5.20;;;3.60;;
76795;SDS011;65745;50.278;18.192;2023-03-23T15:55:21;5.40;;;3.10;;
76795;SDS011;65745;50.278;18.192;2023-03-23T15:57:55;8.00;;;4.20;;
76795;SDS011;65745;50.278;18.192;2023-03-23T16:00:27;4.60;;;3.70;;